sensor_id;sensor_type;location;lat;lon;timestamp;P1;durP1;ratioP1;P2;durP2;ratioP2
19285;SDS011;9776;50.798;6.430;2023-05-16T00:01:46;4.88;;;2.90;;
19285;SDS011;9776;50.798;6.430;2023-05-16T00:04:13;4.70;;;2.50;;
19285;SDS011;9776;50.798;6.430;2023-05-16T00:06:41;3.92;;;2.80;;
19285;SDS011;9776;50.798;6.430;2023-05-16T00:09:08;5.05;;;2.38;;
19285;SDS011;9776;50.798;6.430;2023-05-16T00:11:35;4.53;;;2.42;;
19285;SDS011;9776;50.798;6.430;2023-05-16T00:14:01;4.70;;;2.22;;
19285;SDS011;9776;50.798;6.430;2023-05-16T00:16:28;4.07;;;2.30;;
19285;SDS011;9776;50.798;6.430;2023-05-16T00:18:55;5.68;;;2.28;;
19285;SDS011;9776;50.798;6.430;2023-05-16T00:21:24;4.10;;;2.50;;
19285;SDS011;9776;50.798;6.430;2023-05-16T00:23:53;4.00;;;2.25;;
19285;SDS011;9776;50.798;6.430;2023-05-16T00:26:20;2.70;;;1.80;;
19285;SDS011;9776;50.798;6.430;2023-05-16T00:28:46;3.67;;;1.98;;
19285;SDS011;9776;50.798;6.430;2023-05-16T00:31:13;3.85;;;1.80;;
19285;SDS011;9776;50.798;6.430;2023-05-16T00:33:40;4.38;;;1.90;;
19285;SDS011;9776;50.798;6.430;2023-05-16T00:36:07;4.97;;;1.80;;
19285;SDS011;9776;50.798;6.430;2023-05-16T00:38:33;4.00;;;1.20;;
19285;SDS011;9776;50.798;6.430;2023-05-16T00:41:02;2.30;;;1.30;;
19285;SDS011;9776;50.798;6.430;2023-05-16T00:43:29;1.98;;;0.90;;
19285;SDS011;9776;50.798;6.430;2023-05-16T00:45:56;1.65;;;1.30;;
19285;SDS011;9776;50.798;6.430;2023-05-16T00:48:24;1.90;;;1.15;;
19285;SDS011;9776;50.798;6.430;2023-05-16T00:50:51;1.48;;;1.00;;
19285;SDS011;9776;50.798;6.430;2023-05-16T00:53:18;2.22;;;1.05;;
19285;SDS011;9776;50.798;6.430;2023-05-16T00:55:45;2.78;;;1.00;;
19285;SDS011;9776;50.798;6.430;2023-05-16T00:58:14;1.58;;;1.05;;
19285;SDS011;9776;50.798;6.430;2023-05-16T01:00:41;3.08;;;1.13;;
19285;SDS011;9776;50.798;6.430;2023-05-16T01:03:09;1.58;;;0.85;;
19285;SDS011;9776;50.798;6.430;2023-05-16T01:05:37;2.42;;;1.27;;
19285;SDS011;9776;50.798;6.430;2023-05-16T01:08:03;3.38;;;1.42;;
19285;SDS011;9776;50.798;6.430;2023-05-16T01:10:31;3.17;;;1.55;;
19285;SDS011;9776;50.798;6.430;2023-05-16T01:13:06;2.88;;;1.42;;
19285;SDS011;9776;50.798;6.430;2023-05-16T01:15:41;1.83;;;1.40;;
19285;SDS011;9776;50.798;6.430;2023-05-16T01:18:11;2.75;;;1.40;;
19285;SDS011;9776;50.798;6.430;2023-05-16T01:20:46;2.20;;;1.48;;
19285;SDS011;9776;50.798;6.430;2023-05-16T01:23:19;3.03;;;1.35;;
19285;SDS011;9776;50.798;6.430;2023-05-16T01:26:09;4.65;;;1.25;;
19285;SDS011;9776;50.798;6.430;2023-05-16T01:28:39;3.38;;;1.67;;
19285;SDS011;9776;50.798;6.430;2023-05-16T01:31:07;3.25;;;1.30;;
19285;SDS011;9776;50.798;6.430;2023-05-16T01:33:33;4.35;;;1.60;;
19285;SDS011;9776;50.798;6.430;2023-05-16T01:36:03;5.53;;;1.65;;
19285;SDS011;9776;50.798;6.430;2023-05-16T01:38:38;2.78;;;1.30;;
19285;SDS011;9776;50.798;6.430;2023-05-16T01:41:14;2.92;;;1.50;;
19285;SDS011;9776;50.798;6.430;2023-05-16T01:43:47;5.20;;;1.58;;
19285;SDS011;9776;50.798;6.430;2023-05-16T01:46:19;3.75;;;1.70;;
19285;SDS011;9776;50.798;6.430;2023-05-16T01:48:50;7.00;;;1.85;;
19285;SDS011;9776;50.798;6.430;2023-05-16T01:51:20;4.78;;;1.58;;
19285;SDS011;9776;50.798;6.430;2023-05-16T01:53:49;3.20;;;1.50;;
19285;SDS011;9776;50.798;6.430;2023-05-16T01:56:22;3.83;;;1.77;;
19285;SDS011;9776;50.798;6.430;2023-05-16T01:58:51;5.22;;;1.70;;
19285;SDS011;9776;50.798;6.430;2023-05-16T02:01:19;7.60;;;2.08;;
19285;SDS011;9776;50.798;6.430;2023-05-16T02:03:46;3.28;;;1.60;;
19285;SDS011;9776;50.798;6.430;2023-05-16T02:06:12;5.75;;;2.25;;
19285;SDS011;9776;50.798;6.430;2023-05-16T02:08:39;4.40;;;1.85;;
19285;SDS011;9776;50.798;6.430;2023-05-16T02:11:06;6.88;;;1.77;;
19285;SDS011;9776;50.798;6.430;2023-05-16T02:13:34;4.57;;;1.80;;
19285;SDS011;9776;50.798;6.430;2023-05-16T02:16:01;5.75;;;1.90;;
19285;SDS011;9776;50.798;6.430;2023-05-16T02:18:28;3.28;;;1.83;;
19285;SDS011;9776;50.798;6.430;2023-05-16T02:20:54;5.63;;;1.85;;
19285;SDS011;9776;50.798;6.430;2023-05-16T02:23:21;5.20;;;1.80;;
19285;SDS011;9776;50.798;6.430;2023-05-16T02:25:48;8.93;;;2.10;;
19285;SDS011;9776;50.798;6.430;2023-05-16T02:28:14;7.68;;;2.00;;
19285;SDS011;9776;50.798;6.430;2023-05-16T02:30:43;9.85;;;2.63;;
19285;SDS011;9776;50.798;6.430;2023-05-16T02:33:09;5.63;;;1.80;;
19285;SDS011;9776;50.798;6.430;2023-05-16T02:35:36;7.20;;;2.40;;
19285;SDS011;9776;50.798;6.430;2023-05-16T02:38:03;6.28;;;2.22;;
19285;SDS011;9776;50.798;6.430;2023-05-16T02:40:30;6.75;;;2.13;;
19285;SDS011;9776;50.798;6.430;2023-05-16T02:42:56;7.18;;;2.08;;
19285;SDS011;9776;50.798;6.430;2023-05-16T02:45:23;8.00;;;1.77;;
19285;SDS011;9776;50.798;6.430;2023-05-16T02:47:52;6.95;;;2.22;;
19285;SDS011;9776;50.798;6.430;2023-05-16T02:50:19;7.30;;;2.13;;
19285;SDS011;9776;50.798;6.430;2023-05-16T02:52:45;8.38;;;2.20;;
19285;SDS011;9776;50.798;6.430;2023-05-16T02:55:12;8.52;;;2.40;;
19285;SDS011;9776;50.798;6.430;2023-05-16T02:57:39;7.78;;;2.15;;
19285;SDS011;9776;50.798;6.430;2023-05-16T03:00:06;7.72;;;1.67;;
19285;SDS011;9776;50.798;6.430;2023-05-16T03:02:35;6.68;;;2.10;;
19285;SDS011;9776;50.798;6.430;2023-05-16T03:05:04;6.80;;;2.20;;
19285;SDS011;9776;50.798;6.430;2023-05-16T03:07:31;7.35;;;1.90;;
19285;SDS011;9776;50.798;6.430;2023-05-16T03:09:58;10.18;;;2.00;;
19285;SDS011;9776;50.798;6.430;2023-05-16T03:12:25;7.60;;;2.15;;
19285;SDS011;9776;50.798;6.430;2023-05-16T03:14:51;8.07;;;2.13;;
19285;SDS011;9776;50.798;6.430;2023-05-16T03:17:18;7.93;;;1.98;;
19285;SDS011;9776;50.798;6.430;2023-05-16T03:19:45;8.73;;;2.17;;
19285;SDS011;9776;50.798;6.430;2023-05-16T03:22:13;9.25;;;2.15;;
19285;SDS011;9776;50.798;6.430;2023-05-16T03:24:40;10.50;;;2.05;;
19285;SDS011;9776;50.798;6.430;2023-05-16T03:27:06;6.35;;;1.90;;
19285;SDS011;9776;50.798;6.430;2023-05-16T03:29:33;6.60;;;1.80;;
19285;SDS011;9776;50.798;6.430;2023-05-16T03:32:00;7.95;;;2.05;;
19285;SDS011;9776;50.798;6.430;2023-05-16T03:34:26;5.18;;;1.75;;
19285;SDS011;9776;50.798;6.430;2023-05-16T03:36:53;9.45;;;2.05;;
19285;SDS011;9776;50.798;6.430;2023-05-16T03:39:21;7.57;;;1.90;;
19285;SDS011;9776;50.798;6.430;2023-05-16T03:41:48;9.30;;;1.98;;
19285;SDS011;9776;50.798;6.430;2023-05-16T03:44:16;7.47;;;1.92;;
19285;SDS011;9776;50.798;6.430;2023-05-16T03:46:42;8.65;;;2.10;;
19285;SDS011;9776;50.798;6.430;2023-05-16T03:49:09;8.75;;;2.00;;
19285;SDS011;9776;50.798;6.430;2023-05-16T03:51:36;7.22;;;1.63;;
19285;SDS011;9776;50.798;6.430;2023-05-16T03:54:03;8.30;;;2.03;;
19285;SDS011;9776;50.798;6.430;2023-05-16T03:56:31;5.65;;;1.85;;
19285;SDS011;9776;50.798;6.430;2023-05-16T03:58:58;10.80;;;1.80;;
19285;SDS011;9776;50.798;6.430;2023-05-16T04:01:25;6.40;;;1.88;;
19285;SDS011;9776;50.798;6.430;2023-05-16T04:03:52;9.20;;;2.15;;
19285;SDS011;9776;50.798;6.430;2023-05-16T04:06:18;10.77;;;2.05;;
19285;SDS011;9776;50.798;6.430;2023-05-16T04:08:45;5.28;;;1.60;;
19285;SDS011;9776;50.798;6.430;2023-05-16T04:11:12;6.97;;;1.42;;
19285;SDS011;9776;50.798;6.430;2023-05-16T04:13:40;6.70;;;1.65;;
19285;SDS011;9776;50.798;6.430;2023-05-16T04:16:06;5.65;;;1.58;;
19285;SDS011;9776;50.798;6.430;2023-05-16T04:18:33;5.50;;;1.60;;
19285;SDS011;9776;50.798;6.430;2023-05-16T04:21:00;8.23;;;3.30;;
19285;SDS011;9776;50.798;6.430;2023-05-16T04:23:27;9.68;;;1.75;;
19285;SDS011;9776;50.798;6.430;2023-05-16T04:25:53;8.38;;;1.92;;
19285;SDS011;9776;50.798;6.430;2023-05-16T04:28:20;5.53;;;1.77;;
19285;SDS011;9776;50.798;6.430;2023-05-16T04:30:49;10.10;;;1.58;;
19285;SDS011;9776;50.798;6.430;2023-05-16T04:33:16;10.07;;;1.80;;
19285;SDS011;9776;50.798;6.430;2023-05-16T04:35:42;8.55;;;1.77;;
19285;SDS011;9776;50.798;6.430;2023-05-16T04:38:09;8.18;;;1.42;;
19285;SDS011;9776;50.798;6.430;2023-05-16T04:40:36;8.25;;;1.90;;
19285;SDS011;9776;50.798;6.430;2023-05-16T04:43:02;6.63;;;1.90;;
19285;SDS011;9776;50.798;6.430;2023-05-16T04:45:29;10.88;;;2.10;;
19285;SDS011;9776;50.798;6.430;2023-05-16T04:47:57;8.25;;;1.70;;
19285;SDS011;9776;50.798;6.430;2023-05-16T04:50:24;6.20;;;1.33;;
19285;SDS011;9776;50.798;6.430;2023-05-16T04:52:50;9.95;;;1.67;;
19285;SDS011;9776;50.798;6.430;2023-05-16T04:55:17;8.90;;;1.38;;
19285;SDS011;9776;50.798;6.430;2023-05-16T04:57:44;7.32;;;1.77;;
19285;SDS011;9776;50.798;6.430;2023-05-16T05:00:11;8.50;;;1.40;;
19285;SDS011;9776;50.798;6.430;2023-05-16T05:02:38;6.97;;;1.48;;
19285;SDS011;9776;50.798;6.430;2023-05-16T05:05:07;7.97;;;1.75;;
19285;SDS011;9776;50.798;6.430;2023-05-16T05:07:34;9.45;;;1.50;;
19285;SDS011;9776;50.798;6.430;2023-05-16T05:10:01;6.75;;;1.45;;
19285;SDS011;9776;50.798;6.430;2023-05-16T05:12:28;9.38;;;1.30;;
19285;SDS011;9776;50.798;6.430;2023-05-16T05:14:54;8.60;;;1.65;;
19285;SDS011;9776;50.798;6.430;2023-05-16T05:17:21;10.60;;;1.73;;
19285;SDS011;9776;50.798;6.430;2023-05-16T05:19:48;7.93;;;1.60;;
19285;SDS011;9776;50.798;6.430;2023-05-16T05:22:16;6.82;;;1.50;;
19285;SDS011;9776;50.798;6.430;2023-05-16T05:24:42;11.57;;;2.55;;
19285;SDS011;9776;50.798;6.430;2023-05-16T05:27:09;8.48;;;2.85;;
19285;SDS011;9776;50.798;6.430;2023-05-16T05:29:36;13.15;;;2.22;;
19285;SDS011;9776;50.798;6.430;2023-05-16T05:32:03;7.35;;;1.80;;
19285;SDS011;9776;50.798;6.430;2023-05-16T05:34:30;6.68;;;1.63;;
19285;SDS011;9776;50.798;6.430;2023-05-16T05:36:57;8.68;;;1.70;;
19285;SDS011;9776;50.798;6.430;2023-05-16T05:39:25;7.07;;;1.60;;
19285;SDS011;9776;50.798;6.430;2023-05-16T05:41:52;7.35;;;1.38;;
19285;SDS011;9776;50.798;6.430;2023-05-16T05:44:18;6.45;;;1.95;;
19285;SDS011;9776;50.798;6.430;2023-05-16T05:46:45;8.10;;;1.50;;
19285;SDS011;9776;50.798;6.430;2023-05-16T05:49:12;5.57;;;1.70;;
19285;SDS011;9776;50.798;6.430;2023-05-16T05:51:39;7.45;;;1.50;;
19285;SDS011;9776;50.798;6.430;2023-05-16T05:54:06;6.10;;;2.15;;
19285;SDS011;9776;50.798;6.430;2023-05-16T05:56:34;10.23;;;1.85;;
19285;SDS011;9776;50.798;6.430;2023-05-16T05:59:00;5.70;;;1.70;;
19285;SDS011;9776;50.798;6.430;2023-05-16T06:01:27;8.30;;;1.80;;
19285;SDS011;9776;50.798;6.430;2023-05-16T06:03:54;11.50;;;1.80;;
19285;SDS011;9776;50.798;6.430;2023-05-16T06:06:21;7.88;;;1.42;;
19285;SDS011;9776;50.798;6.430;2023-05-16T06:08:48;7.10;;;1.58;;
19285;SDS011;9776;50.798;6.430;2023-05-16T06:11:15;9.38;;;1.80;;
19285;SDS011;9776;50.798;6.430;2023-05-16T06:13:43;8.40;;;1.85;;
19285;SDS011;9776;50.798;6.430;2023-05-16T06:16:09;6.53;;;1.83;;
19285;SDS011;9776;50.798;6.430;2023-05-16T06:18:36;6.30;;;1.55;;
19285;SDS011;9776;50.798;6.430;2023-05-16T06:21:03;6.20;;;1.58;;
19285;SDS011;9776;50.798;6.430;2023-05-16T06:23:30;7.40;;;1.50;;
19285;SDS011;9776;50.798;6.430;2023-05-16T06:25:57;8.18;;;1.70;;
19285;SDS011;9776;50.798;6.430;2023-05-16T06:28:23;8.23;;;1.70;;
19285;SDS011;9776;50.798;6.430;2023-05-16T06:30:52;7.78;;;1.75;;
19285;SDS011;9776;50.798;6.430;2023-05-16T06:33:18;5.47;;;1.60;;
19285;SDS011;9776;50.798;6.430;2023-05-16T06:35:45;5.95;;;1.25;;
19285;SDS011;9776;50.798;6.430;2023-05-16T06:38:13;5.35;;;1.30;;
19285;SDS011;9776;50.798;6.430;2023-05-16T06:40:39;7.05;;;1.70;;
19285;SDS011;9776;50.798;6.430;2023-05-16T06:43:06;7.38;;;1.70;;
19285;SDS011;9776;50.798;6.430;2023-05-16T06:45:33;8.77;;;1.33;;
19285;SDS011;9776;50.798;6.430;2023-05-16T06:48:01;9.15;;;1.60;;
19285;SDS011;9776;50.798;6.430;2023-05-16T06:50:27;10.30;;;1.67;;
19285;SDS011;9776;50.798;6.430;2023-05-16T06:52:54;10.88;;;1.70;;
19285;SDS011;9776;50.798;6.430;2023-05-16T06:55:21;10.73;;;2.10;;
19285;SDS011;9776;50.798;6.430;2023-05-16T06:57:48;5.80;;;1.50;;
19285;SDS011;9776;50.798;6.430;2023-05-16T07:00:15;6.15;;;1.27;;
19285;SDS011;9776;50.798;6.430;2023-05-16T07:02:42;7.38;;;1.33;;
19285;SDS011;9776;50.798;6.430;2023-05-16T07:05:10;7.32;;;1.75;;
19285;SDS011;9776;50.798;6.430;2023-05-16T07:07:37;7.55;;;1.50;;
19285;SDS011;9776;50.798;6.430;2023-05-16T07:10:04;7.80;;;1.75;;
19285;SDS011;9776;50.798;6.430;2023-05-16T07:12:31;8.15;;;1.50;;
19285;SDS011;9776;50.798;6.430;2023-05-16T07:14:58;6.18;;;1.20;;
19285;SDS011;9776;50.798;6.430;2023-05-16T07:17:25;7.40;;;1.42;;
19285;SDS011;9776;50.798;6.430;2023-05-16T07:19:51;4.95;;;1.17;;
19285;SDS011;9776;50.798;6.430;2023-05-16T07:22:20;8.25;;;1.73;;
19285;SDS011;9776;50.798;6.430;2023-05-16T07:24:46;5.93;;;1.13;;
19285;SDS011;9776;50.798;6.430;2023-05-16T07:27:13;5.68;;;1.20;;
19285;SDS011;9776;50.798;6.430;2023-05-16T07:29:40;5.85;;;1.00;;
19285;SDS011;9776;50.798;6.430;2023-05-16T07:32:07;7.50;;;1.50;;
19285;SDS011;9776;50.798;6.430;2023-05-16T07:34:33;5.93;;;1.35;;
19285;SDS011;9776;50.798;6.430;2023-05-16T07:37:00;6.00;;;1.20;;
19285;SDS011;9776;50.798;6.430;2023-05-16T07:39:28;6.03;;;1.13;;
19285;SDS011;9776;50.798;6.430;2023-05-16T07:41:55;6.22;;;1.30;;
19285;SDS011;9776;50.798;6.430;2023-05-16T07:44:22;7.93;;;1.15;;
19285;SDS011;9776;50.798;6.430;2023-05-16T07:46:49;7.10;;;1.30;;
19285;SDS011;9776;50.798;6.430;2023-05-16T07:49:15;6.65;;;1.30;;
19285;SDS011;9776;50.798;6.430;2023-05-16T07:51:42;3.63;;;1.20;;
19285;SDS011;9776;50.798;6.430;2023-05-16T07:54:09;6.70;;;1.33;;
19285;SDS011;9776;50.798;6.430;2023-05-16T07:56:37;5.35;;;0.90;;
19285;SDS011;9776;50.798;6.430;2023-05-16T07:59:03;6.03;;;1.30;;
19285;SDS011;9776;50.798;6.430;2023-05-16T08:01:30;6.05;;;0.90;;
19285;SDS011;9776;50.798;6.430;2023-05-16T08:03:57;3.50;;;0.90;;
19285;SDS011;9776;50.798;6.430;2023-05-16T08:06:24;6.47;;;1.30;;
19285;SDS011;9776;50.798;6.430;2023-05-16T08:08:51;4.70;;;1.10;;
19285;SDS011;9776;50.798;6.430;2023-05-16T08:11:17;5.07;;;1.55;;
19285;SDS011;9776;50.798;6.430;2023-05-16T08:13:48;4.63;;;1.10;;
19285;SDS011;9776;50.798;6.430;2023-05-16T08:16:15;7.40;;;1.23;;
19285;SDS011;9776;50.798;6.430;2023-05-16T08:18:42;6.35;;;1.50;;
19285;SDS011;9776;50.798;6.430;2023-05-16T08:21:08;5.00;;;1.23;;
19285;SDS011;9776;50.798;6.430;2023-05-16T08:23:35;5.13;;;1.25;;
19285;SDS011;9776;50.798;6.430;2023-05-16T08:26:02;6.43;;;1.40;;
19285;SDS011;9776;50.798;6.430;2023-05-16T08:28:29;7.95;;;1.50;;
19285;SDS011;9776;50.798;6.430;2023-05-16T08:30:57;7.82;;;2.00;;
19285;SDS011;9776;50.798;6.430;2023-05-16T08:33:24;7.47;;;1.30;;
19285;SDS011;9776;50.798;6.430;2023-05-16T08:35:51;7.63;;;1.80;;
19285;SDS011;9776;50.798;6.430;2023-05-16T08:38:17;6.47;;;1.20;;
19285;SDS011;9776;50.798;6.430;2023-05-16T08:40:44;3.83;;;0.80;;
19285;SDS011;9776;50.798;6.430;2023-05-16T08:43:11;6.00;;;1.48;;
19285;SDS011;9776;50.798;6.430;2023-05-16T08:45:39;4.15;;;1.20;;
19285;SDS011;9776;50.798;6.430;2023-05-16T08:48:07;7.80;;;1.38;;
19285;SDS011;9776;50.798;6.430;2023-05-16T08:50:35;6.53;;;1.30;;
19285;SDS011;9776;50.798;6.430;2023-05-16T08:53:03;4.85;;;1.05;;
19285;SDS011;9776;50.798;6.430;2023-05-16T08:55:32;5.32;;;1.08;;
19285;SDS011;9776;50.798;6.430;2023-05-16T08:58:00;5.70;;;0.82;;
19285;SDS011;9776;50.798;6.430;2023-05-16T09:00:27;5.28;;;1.17;;
19285;SDS011;9776;50.798;6.430;2023-05-16T09:02:55;2.92;;;0.77;;
19285;SDS011;9776;50.798;6.430;2023-05-16T09:05:24;4.25;;;0.85;;
19285;SDS011;9776;50.798;6.430;2023-05-16T09:07:52;4.90;;;1.08;;
19285;SDS011;9776;50.798;6.430;2023-05-16T09:10:19;3.97;;;0.60;;
19285;SDS011;9776;50.798;6.430;2023-05-16T09:12:46;3.33;;;0.75;;
19285;SDS011;9776;50.798;6.430;2023-05-16T09:15:13;6.50;;;0.82;;
19285;SDS011;9776;50.798;6.430;2023-05-16T09:17:42;5.53;;;1.00;;
19285;SDS011;9776;50.798;6.430;2023-05-16T09:20:11;5.72;;;0.95;;
19285;SDS011;9776;50.798;6.430;2023-05-16T09:22:48;3.35;;;1.20;;
19285;SDS011;9776;50.798;6.430;2023-05-16T09:25:16;5.43;;;0.75;;
19285;SDS011;9776;50.798;6.430;2023-05-16T09:27:44;4.82;;;1.00;;
19285;SDS011;9776;50.798;6.430;2023-05-16T09:30:12;4.38;;;0.70;;
19285;SDS011;9776;50.798;6.430;2023-05-16T09:32:42;3.17;;;0.70;;
19285;SDS011;9776;50.798;6.430;2023-05-16T09:35:10;3.60;;;0.80;;
19285;SDS011;9776;50.798;6.430;2023-05-16T09:37:44;3.70;;;0.88;;
19285;SDS011;9776;50.798;6.430;2023-05-16T09:40:12;4.43;;;0.82;;
19285;SDS011;9776;50.798;6.430;2023-05-16T09:42:39;3.17;;;0.90;;
19285;SDS011;9776;50.798;6.430;2023-05-16T09:45:06;2.65;;;0.70;;
19285;SDS011;9776;50.798;6.430;2023-05-16T09:47:37;4.65;;;0.70;;
19285;SDS011;9776;50.798;6.430;2023-05-16T09:50:10;4.45;;;0.90;;
19285;SDS011;9776;50.798;6.430;2023-05-16T09:52:38;3.08;;;0.90;;
19285;SDS011;9776;50.798;6.430;2023-05-16T09:55:07;3.17;;;0.70;;
19285;SDS011;9776;50.798;6.430;2023-05-16T09:57:36;3.30;;;0.80;;
19285;SDS011;9776;50.798;6.430;2023-05-16T10:00:04;4.70;;;0.80;;
19285;SDS011;9776;50.798;6.430;2023-05-16T10:02:34;4.90;;;0.90;;
19285;SDS011;9776;50.798;6.430;2023-05-16T10:05:02;3.03;;;0.80;;
19285;SDS011;9776;50.798;6.430;2023-05-16T10:07:29;3.47;;;0.73;;
19285;SDS011;9776;50.798;6.430;2023-05-16T10:09:58;3.05;;;0.88;;
19285;SDS011;9776;50.798;6.430;2023-05-16T10:12:29;3.95;;;0.63;;
19285;SDS011;9776;50.798;6.430;2023-05-16T10:15:00;4.35;;;0.95;;
19285;SDS011;9776;50.798;6.430;2023-05-16T10:17:29;3.58;;;0.82;;
19285;SDS011;9776;50.798;6.430;2023-05-16T10:19:59;5.28;;;0.80;;
19285;SDS011;9776;50.798;6.430;2023-05-16T10:22:30;3.70;;;0.90;;
19285;SDS011;9776;50.798;6.430;2023-05-16T10:24:59;7.43;;;2.08;;
19285;SDS011;9776;50.798;6.430;2023-05-16T10:27:35;1.73;;;0.57;;
19285;SDS011;9776;50.798;6.430;2023-05-16T10:30:04;2.33;;;0.70;;
19285;SDS011;9776;50.798;6.430;2023-05-16T10:32:33;3.50;;;1.02;;
19285;SDS011;9776;50.798;6.430;2023-05-16T10:35:02;3.38;;;0.70;;
19285;SDS011;9776;50.798;6.430;2023-05-16T10:37:29;2.75;;;0.60;;
19285;SDS011;9776;50.798;6.430;2023-05-16T10:39:57;3.58;;;0.85;;
19285;SDS011;9776;50.798;6.430;2023-05-16T10:42:30;3.90;;;0.98;;
19285;SDS011;9776;50.798;6.430;2023-05-16T10:45:09;4.88;;;0.80;;
19285;SDS011;9776;50.798;6.430;2023-05-16T10:47:49;4.20;;;1.05;;
19285;SDS011;9776;50.798;6.430;2023-05-16T10:50:29;3.40;;;0.73;;
19285;SDS011;9776;50.798;6.430;2023-05-16T10:53:09;6.50;;;0.85;;
19285;SDS011;9776;50.798;6.430;2023-05-16T10:55:37;4.57;;;0.90;;
19285;SDS011;9776;50.798;6.430;2023-05-16T10:58:04;3.90;;;0.82;;
19285;SDS011;9776;50.798;6.430;2023-05-16T11:00:33;3.63;;;0.70;;
19285;SDS011;9776;50.798;6.430;2023-05-16T11:03:03;2.90;;;0.65;;
19285;SDS011;9776;50.798;6.430;2023-05-16T11:05:31;1.98;;;0.50;;
19285;SDS011;9776;50.798;6.430;2023-05-16T11:08:01;5.60;;;0.82;;
19285;SDS011;9776;50.798;6.430;2023-05-16T11:10:30;5.85;;;0.98;;
19285;SDS011;9776;50.798;6.430;2023-05-16T11:13:01;3.15;;;0.70;;
19285;SDS011;9776;50.798;6.430;2023-05-16T11:15:30;5.63;;;0.80;;
19285;SDS011;9776;50.798;6.430;2023-05-16T11:18:07;2.88;;;0.90;;
19285;SDS011;9776;50.798;6.430;2023-05-16T11:20:35;3.42;;;0.50;;
19285;SDS011;9776;50.798;6.430;2023-05-16T11:23:18;3.55;;;0.80;;
19285;SDS011;9776;50.798;6.430;2023-05-16T11:25:54;3.05;;;0.60;;
19285;SDS011;9776;50.798;6.430;2023-05-16T11:28:23;3.95;;;0.60;;
19285;SDS011;9776;50.798;6.430;2023-05-16T11:30:51;4.32;;;0.65;;
19285;SDS011;9776;50.798;6.430;2023-05-16T11:33:22;4.35;;;0.85;;
19285;SDS011;9776;50.798;6.430;2023-05-16T11:36:02;4.32;;;0.75;;
19285;SDS011;9776;50.798;6.430;2023-05-16T11:38:31;5.80;;;0.90;;
19285;SDS011;9776;50.798;6.430;2023-05-16T11:41:02;4.95;;;0.80;;
19285;SDS011;9776;50.798;6.430;2023-05-16T11:43:40;4.13;;;0.55;;
19285;SDS011;9776;50.798;6.430;2023-05-16T11:46:09;5.03;;;0.60;;
19285;SDS011;9776;50.798;6.430;2023-05-16T11:48:39;3.10;;;0.70;;
19285;SDS011;9776;50.798;6.430;2023-05-16T11:51:06;3.15;;;0.70;;
19285;SDS011;9776;50.798;6.430;2023-05-16T11:53:35;2.78;;;0.80;;
19285;SDS011;9776;50.798;6.430;2023-05-16T11:56:04;3.30;;;0.68;;
19285;SDS011;9776;50.798;6.430;2023-05-16T11:58:33;2.15;;;0.73;;
19285;SDS011;9776;50.798;6.430;2023-05-16T12:01:02;2.40;;;0.50;;
19285;SDS011;9776;50.798;6.430;2023-05-16T12:03:30;2.60;;;0.60;;
19285;SDS011;9776;50.798;6.430;2023-05-16T12:06:00;2.60;;;0.77;;
19285;SDS011;9776;50.798;6.430;2023-05-16T12:08:27;5.10;;;1.23;;
19285;SDS011;9776;50.798;6.430;2023-05-16T12:10:54;4.10;;;0.60;;
19285;SDS011;9776;50.798;6.430;2023-05-16T12:13:22;2.20;;;0.47;;
19285;SDS011;9776;50.798;6.430;2023-05-16T12:15:50;4.03;;;0.70;;
19285;SDS011;9776;50.798;6.430;2023-05-16T12:18:17;2.00;;;0.50;;
19285;SDS011;9776;50.798;6.430;2023-05-16T12:20:45;3.08;;;0.68;;
19285;SDS011;9776;50.798;6.430;2023-05-16T12:23:14;4.15;;;0.80;;
19285;SDS011;9776;50.798;6.430;2023-05-16T12:25:44;3.30;;;0.57;;
19285;SDS011;9776;50.798;6.430;2023-05-16T12:28:13;3.50;;;0.70;;
19285;SDS011;9776;50.798;6.430;2023-05-16T12:30:41;2.75;;;0.60;;
19285;SDS011;9776;50.798;6.430;2023-05-16T12:33:12;3.05;;;0.60;;
19285;SDS011;9776;50.798;6.430;2023-05-16T12:35:41;1.75;;;0.65;;
19285;SDS011;9776;50.798;6.430;2023-05-16T12:38:09;3.03;;;0.90;;
19285;SDS011;9776;50.798;6.430;2023-05-16T12:40:41;3.58;;;0.80;;
19285;SDS011;9776;50.798;6.430;2023-05-16T12:43:12;3.00;;;0.60;;
19285;SDS011;9776;50.798;6.430;2023-05-16T12:45:39;2.50;;;0.50;;
19285;SDS011;9776;50.798;6.430;2023-05-16T12:48:10;2.80;;;0.70;;
19285;SDS011;9776;50.798;6.430;2023-05-16T12:50:38;3.33;;;0.60;;
19285;SDS011;9776;50.798;6.430;2023-05-16T12:53:09;2.45;;;0.60;;
19285;SDS011;9776;50.798;6.430;2023-05-16T12:55:38;2.88;;;0.75;;
19285;SDS011;9776;50.798;6.430;2023-05-16T12:58:08;1.92;;;0.50;;
19285;SDS011;9776;50.798;6.430;2023-05-16T13:00:36;1.75;;;0.75;;
19285;SDS011;9776;50.798;6.430;2023-05-16T13:03:04;4.55;;;0.80;;
19285;SDS011;9776;50.798;6.430;2023-05-16T13:05:31;3.42;;;0.80;;
19285;SDS011;9776;50.798;6.430;2023-05-16T13:07:59;4.10;;;2.45;;
19285;SDS011;9776;50.798;6.430;2023-05-16T13:10:26;2.60;;;0.60;;
19285;SDS011;9776;50.798;6.430;2023-05-16T13:12:53;2.60;;;0.60;;
19285;SDS011;9776;50.798;6.430;2023-05-16T13:15:24;3.85;;;0.65;;
19285;SDS011;9776;50.798;6.430;2023-05-16T13:17:51;1.33;;;0.40;;
19285;SDS011;9776;50.798;6.430;2023-05-16T13:20:17;0.95;;;0.30;;
19285;SDS011;9776;50.798;6.430;2023-05-16T13:22:45;1.77;;;0.50;;
19285;SDS011;9776;50.798;6.430;2023-05-16T13:25:14;0.88;;;0.40;;
19285;SDS011;9776;50.798;6.430;2023-05-16T13:27:41;3.80;;;0.60;;
19285;SDS011;9776;50.798;6.430;2023-05-16T13:30:09;1.45;;;0.43;;
19285;SDS011;9776;50.798;6.430;2023-05-16T13:32:37;2.53;;;0.40;;
19285;SDS011;9776;50.798;6.430;2023-05-16T13:35:04;3.60;;;0.40;;
19285;SDS011;9776;50.798;6.430;2023-05-16T13:37:32;1.30;;;0.50;;
19285;SDS011;9776;50.798;6.430;2023-05-16T13:39:59;2.08;;;0.43;;
19285;SDS011;9776;50.798;6.430;2023-05-16T13:42:26;2.72;;;0.75;;
19285;SDS011;9776;50.798;6.430;2023-05-16T13:44:52;2.58;;;0.52;;
19285;SDS011;9776;50.798;6.430;2023-05-16T13:47:19;1.45;;;0.47;;
19285;SDS011;9776;50.798;6.430;2023-05-16T13:49:48;2.10;;;0.70;;
19285;SDS011;9776;50.798;6.430;2023-05-16T13:52:14;3.83;;;0.65;;
19285;SDS011;9776;50.798;6.430;2023-05-16T13:54:42;2.85;;;0.52;;
19285;SDS011;9776;50.798;6.430;2023-05-16T13:57:08;2.13;;;0.40;;
19285;SDS011;9776;50.798;6.430;2023-05-16T13:59:36;2.35;;;0.55;;
19285;SDS011;9776;50.798;6.430;2023-05-16T14:02:03;2.50;;;0.50;;
19285;SDS011;9776;50.798;6.430;2023-05-16T14:04:30;3.90;;;0.70;;
19285;SDS011;9776;50.798;6.430;2023-05-16T14:06:58;2.95;;;0.70;;
19285;SDS011;9776;50.798;6.430;2023-05-16T14:09:25;3.38;;;0.80;;
19285;SDS011;9776;50.798;6.430;2023-05-16T14:11:51;2.28;;;0.60;;
19285;SDS011;9776;50.798;6.430;2023-05-16T14:14:18;1.30;;;0.60;;
19285;SDS011;9776;50.798;6.430;2023-05-16T14:16:45;1.83;;;0.52;;
19285;SDS011;9776;50.798;6.430;2023-05-16T14:19:12;7.13;;;0.90;;
19285;SDS011;9776;50.798;6.430;2023-05-16T14:21:38;3.80;;;0.80;;
19285;SDS011;9776;50.798;6.430;2023-05-16T14:24:07;2.42;;;0.60;;
19285;SDS011;9776;50.798;6.430;2023-05-16T14:26:34;2.92;;;0.77;;
19285;SDS011;9776;50.798;6.430;2023-05-16T14:29:01;2.47;;;0.60;;
19285;SDS011;9776;50.798;6.430;2023-05-16T14:31:28;2.97;;;0.40;;
19285;SDS011;9776;50.798;6.430;2023-05-16T14:33:54;5.07;;;0.80;;
19285;SDS011;9776;50.798;6.430;2023-05-16T14:36:22;3.15;;;0.70;;
19285;SDS011;9776;50.798;6.430;2023-05-16T14:38:49;3.60;;;0.80;;
19285;SDS011;9776;50.798;6.430;2023-05-16T14:41:17;2.22;;;0.50;;
19285;SDS011;9776;50.798;6.430;2023-05-16T14:43:44;4.10;;;0.73;;
19285;SDS011;9776;50.798;6.430;2023-05-16T14:46:11;4.65;;;0.80;;
19285;SDS011;9776;50.798;6.430;2023-05-16T14:48:37;2.75;;;0.57;;
19285;SDS011;9776;50.798;6.430;2023-05-16T14:51:05;2.92;;;0.80;;
19285;SDS011;9776;50.798;6.430;2023-05-16T14:53:31;2.63;;;0.70;;
19285;SDS011;9776;50.798;6.430;2023-05-16T14:55:59;3.05;;;0.70;;
19285;SDS011;9776;50.798;6.430;2023-05-16T14:58:28;5.22;;;0.80;;
19285;SDS011;9776;50.798;6.430;2023-05-16T15:00:54;5.55;;;0.70;;
19285;SDS011;9776;50.798;6.430;2023-05-16T15:03:22;2.25;;;0.57;;
19285;SDS011;9776;50.798;6.430;2023-05-16T15:05:48;2.25;;;0.50;;